Trotters, North Dakota
Current Conditions -  °F | °C
As of 8:55 PM on Thursday 18 Dec 2014 (Local Time) from K20U Reporting Station
Scattered Clouds Scattered Clouds  
Wind Chill: 20°   Ceiling: Unl
Heat Index: 28°   Visibility: 10mi
Dew Point: 27°   Wind: 9mph
Humidity: 93%   Direction: 240°WSW
Pressure: 29.93"   Gusts: NA
Location:  47.0809°N, 103.878°W
Report Text: K20U 190355Z AUTO 24008KT 10SM SCT090 M02/M03 A2993 RMK AO2
Loading
Personal Weather Stations






























Interactive Weather Map New forecast layout! Learn more

10-Day Weather Forecast

Advertisements
Track Severe Weather on mobile